Lake Hopatcong, New Jersey
Current Conditions -  °F | °C
As of 10:45 AM on Monday 22 Dec 2014 (Local Time) from KMMU Reporting Station
Overcast Overcast  
Wind Chill: 37°   Ceiling: 800
Heat Index: 37°   Visibility: 7mi
Dew Point: 34°   Wind: 0mph
Humidity: 87%   Direction: NA
Pressure: 30.34"   Gusts: NA
Location:  40.95°N, 74.62°W
Report Text: KMMU 221545Z 00000KT 7SM OVC008 03/01 A3034
Loading
Personal Weather Stations






























Interactive Weather Map New forecast layout! Learn more

10-Day Weather Forecast

Advertisements
Track Severe Weather on mobile